Time;durP1;ratioP1;P1;durP2;ratioP2;P2;SDS_P1;SDS_P2;PMS_P1;PMS_P2;Temp;Humidity;BMP_temperature;BMP_pressure;BME280_temperature;BME280_humidity;BME280_pressure;Samples;Min_cycle;Max_cycle;Signal;HPM_P1;HPM_P2
2023/10/11 00:00:41;;;;;;;13.20;6.30;;;18.60;75.20;;;18.76;48.59;99021.19;5013588;28;122923;-88
2023/10/11 00:03:32;;;;;;;13.30;6.27;;;18.50;75.30;;;18.75;48.86;99024.34;5008435;28;123651;-87
2023/10/11 00:05:59;;;;;;;22.40;7.30;;;18.60;75.50;;;18.70;48.92;99019.81;5012994;28;118771;-87
2023/10/11 00:08:30;;;;;;;17.50;7.10;;;18.50;75.70;;;18.65;49.10;99022.06;5006424;28;119102;-87
2023/10/11 00:10:59;;;;;;;13.33;6.03;;;18.50;75.90;;;18.59;49.23;99013.16;5029996;27;124121;-87
2023/10/11 00:13:32;;;;;;;17.63;5.93;;;18.50;76.20;;;18.54;49.46;99024.59;4991270;28;123289;-87
2023/10/11 00:16:07;;;;;;;14.23;7.33;;;18.40;76.40;;;18.47;49.96;99022.41;5020942;28;120230;-88
2023/10/11 00:18:41;;;;;;;15.07;6.00;;;18.40;77.20;;;18.40;49.87;99025.00;5024107;27;119779;-87
2023/10/11 00:21:11;;;;;;;17.67;7.00;;;18.30;77.10;;;18.36;50.11;99020.53;5006102;27;124253;-88
2023/10/11 00:23:45;;;;;;;17.40;7.00;;;18.20;77.50;;;18.29;50.41;99015.53;5022045;27;123852;-87
2023/10/11 00:26:17;;;;;;;13.60;6.87;;;18.10;77.90;;;18.25;50.33;99020.22;5022462;27;119386;-87
2023/10/11 00:28:44;;;;;;;18.67;6.60;;;19.50;79.30;;;18.25;50.42;99025.81;5024872;27;119033;-88
2023/10/11 00:31:19;;;;;;;14.80;7.07;;;18.10;78.20;;;18.25;50.49;99014.63;5023523;27;123823;-87
2023/10/11 00:33:49;;;;;;;15.60;6.73;;;18.10;78.40;;;18.27;50.40;99023.50;5023137;28;122726;-87
2023/10/11 00:36:16;;;;;;;17.33;7.07;;;18.10;78.60;;;18.28;50.52;99022.31;4993650;28;119542;-88
2023/10/11 00:38:47;;;;;;;8.73;4.97;;;18.10;78.70;;;18.29;50.51;99016.34;5029839;27;119142;-87
2023/10/11 00:41:17;;;;;;;12.20;5.93;;;18.00;78.80;;;18.31;50.43;99016.00;5022510;27;123901;-87
2023/10/11 00:43:49;;;;;;;16.00;6.30;;;18.10;79.00;;;18.30;50.41;99017.19;5039439;27;123874;-88
2023/10/11 00:46:22;;;;;;;12.27;5.60;;;18.10;79.20;;;18.30;50.59;99011.59;5023943;27;120061;-87
2023/10/11 00:49:09;;;;;;;14.50;6.23;;;18.00;79.30;;;18.30;50.55;99006.00;5041723;27;118265;-87
2023/10/11 00:51:44;;;;;;;11.90;6.40;;;18.10;79.40;;;18.28;50.52;98997.94;5011323;28;124019;-87
2023/10/11 00:54:15;;;;;;;15.30;6.50;;;18.00;79.40;;;18.25;50.63;99009.03;5025345;27;124217;-88
2023/10/11 00:57:00;;;;;;;15.97;7.00;;;18.00;79.70;;;18.20;50.74;99000.91;5026569;27;119409;-87
2023/10/11 00:59:28;;;;;;;13.47;7.03;;;18.00;79.70;;;18.18;50.79;99004.06;5025125;27;119044;-88
2023/10/11 01:01:55;;;;;;;14.77;7.47;;;18.00;79.70;;;18.16;50.70;99005.59;5044148;27;123391;-87
2023/10/11 01:04:23;;;;;;;11.33;5.67;;;18.00;79.80;;;18.14;50.83;99007.94;5026384;27;123890;-88
2023/10/11 01:06:54;;;;;;;12.93;6.30;;;18.00;79.80;;;18.13;50.87;98997.91;5027765;27;120254;-88
2023/10/11 01:09:28;;;;;;;11.83;5.80;;;17.90;79.80;;;18.11;50.74;99003.88;5028531;27;119038;-88
2023/10/11 01:11:55;;;;;;;11.27;5.80;;;17.90;80.00;;;18.12;50.93;99004.69;5024575;27;125817;-87
2023/10/11 01:14:24;;;;;;;14.00;6.50;;;17.90;80.00;;;18.12;50.77;98999.91;5026815;27;123803;-87
2023/10/11 01:16:52;;;;;;;12.67;6.30;;;17.90;80.10;;;18.12;50.66;99001.91;5042060;27;118828;-87
2023/10/11 01:19:19;;;;;;;14.27;6.00;;;17.90;80.20;;;18.13;50.53;98995.13;5025609;27;118816;-88
2023/10/11 01:21:52;;;;;;;13.57;6.50;;;17.90;80.20;;;18.12;50.62;98988.72;5027806;28;123856;-88
2023/10/11 01:24:18;;;;;;;12.33;5.27;;;17.80;80.10;;;18.12;50.74;98993.50;5012445;27;123761;-88
2023/10/11 01:26:45;;;;;;;13.47;6.20;;;17.90;80.30;;;18.11;50.87;98984.31;5028094;27;120229;-87
2023/10/11 01:29:12;;;;;;;13.63;6.10;;;17.80;80.30;;;18.11;50.81;98987.09;5008309;27;118349;-87
2023/10/11 01:31:38;;;;;;;12.07;5.77;;;17.90;81.10;;;18.13;50.60;98981.13;5026152;27;124063;-88
2023/10/11 01:34:05;;;;;;;15.17;6.93;;;17.80;80.40;;;18.13;50.63;98972.75;5028373;27;122963;-87
2023/10/11 01:36:31;;;;;;;12.00;5.53;;;17.80;80.40;;;18.14;50.56;98982.78;5027060;27;118636;-87
2023/10/11 01:39:08;;;;;;;10.50;5.37;;;17.80;80.40;;;18.14;50.60;98980.78;5012296;27;119055;-88
2023/10/11 01:41:36;;;;;;;9.93;5.33;;;17.90;80.50;;;18.13;50.63;98978.34;5010850;28;125992;-89
2023/10/11 01:44:03;;;;;;;15.17;5.73;;;17.80;80.40;;;18.13;50.41;98978.34;5019481;27;122856;-87
2023/10/11 01:46:35;;;;;;;10.97;5.50;;;17.80;80.40;;;18.12;50.50;98971.94;5030601;27;119185;-88
2023/10/11 01:49:05;;;;;;;14.40;7.27;;;17.80;80.50;;;18.11;50.56;98970.31;5027330;27;119292;-87
2023/10/11 01:51:39;;;;;;;18.37;6.00;;;17.80;80.60;;;18.10;50.56;98972.28;5031948;27;124144;-88
2023/10/11 01:54:09;;;;;;;9.50;4.97;;;17.80;80.60;;;18.11;50.63;98970.31;5026678;27;123832;-87
2023/10/11 01:56:37;;;;;;;12.57;5.40;;;17.80;80.60;;;18.09;50.69;98967.88;5030769;27;120692;-86
2023/10/11 01:59:04;;;;;;;10.60;5.60;;;17.80;80.70;;;18.08;50.65;98971.84;5034066;27;120084;-87
2023/10/11 02:01:38;;;;;;;11.47;5.83;;;17.80;80.70;;;18.05;50.54;98964.19;5028497;27;124753;-88
2023/10/11 02:04:10;;;;;;;11.30;5.57;;;17.80;80.70;;;18.02;50.39;98964.88;5025964;27;124157;-87
2023/10/11 02:06:40;;;;;;;11.50;6.60;;;17.80;81.20;;;17.98;50.35;98969.56;5022260;27;119102;-87
2023/10/11 02:09:08;;;;;;;12.10;4.67;;;17.70;80.30;;;17.95;50.05;98972.28;5021390;27;119053;-87
2023/10/11 02:11:36;;;;;;;9.63;5.40;;;17.70;80.20;;;17.94;50.44;98965.06;5012755;28;123147;-87
2023/10/11 02:14:05;;;;;;;8.60;5.10;;;17.70;80.20;;;17.93;50.20;98961.44;5010799;28;123551;-86
2023/10/11 02:16:31;;;;;;;13.70;5.37;;;17.70;80.10;;;17.92;50.04;98965.44;5026121;27;119311;-87
2023/10/11 02:19:01;;;;;;;10.40;4.70;;;17.70;79.90;;;17.88;50.22;98964.50;5023984;27;119139;-88
2023/10/11 02:21:31;;;;;;;12.60;5.40;;;17.60;79.80;;;17.82;50.04;98958.34;5013542;27;123940;-87
2023/10/11 02:23:59;;;;;;;14.73;5.87;;;17.60;79.70;;;17.80;50.08;98968.28;5026262;27;123941;-88
2023/10/11 02:26:30;;;;;;;10.53;5.40;;;17.60;79.80;;;17.78;50.19;98967.78;5013381;27;119223;-88
2023/10/11 02:29:00;;;;;;;10.87;4.90;;;17.60;79.80;;;17.77;50.17;98968.94;5024154;27;118231;-88
2023/10/11 02:31:36;;;;;;;11.00;5.37;;;17.50;79.80;;;17.77;50.19;98971.75;5027146;27;124828;-87
2023/10/11 02:34:15;;;;;;;11.43;4.57;;;17.60;80.00;;;17.78;50.27;98967.78;5026424;27;123867;-89
2023/10/11 02:36:55;;;;;;;10.40;5.20;;;17.50;79.80;;;17.78;50.24;98964.97;5028289;28;119630;-89
2023/10/11 02:39:31;;;;;;;9.70;4.70;;;17.50;80.00;;;17.78;50.25;98963.00;5012274;27;119380;-89
2023/10/11 02:41:58;;;;;;;13.40;4.83;;;17.50;80.00;;;17.78;50.35;98968.56;5026219;27;124148;-89
2023/10/11 02:44:26;;;;;;;8.10;4.90;;;17.60;80.20;;;17.80;50.12;98959.88;5015810;27;123107;-88
2023/10/11 02:46:53;;;;;;;11.17;5.77;;;17.50;80.10;;;17.79;50.08;98959.06;5021023;27;120178;-89
2023/10/11 02:49:20;;;;;;;12.20;5.50;;;17.50;80.10;;;17.79;50.09;98952.69;5018040;28;120080;-89
2023/10/11 02:52:05;;;;;;;8.40;4.80;;;17.40;80.10;;;17.77;50.13;98955.78;5025795;27;124228;-89
2023/10/11 02:54:39;;;;;;;7.70;5.40;;;17.50;80.20;;;17.74;50.17;98955.69;5024572;27;124113;-89
2023/10/11 02:57:06;;;;;;;10.17;5.20;;;17.40;80.10;;;17.73;50.23;98959.63;5020239;27;119596;-90
2023/10/11 02:59:33;;;;;;;9.60;5.20;;;17.50;80.20;;;17.73;50.25;98942.88;5014623;28;119092;-89
2023/10/11 03:02:00;;;;;;;10.17;5.17;;;17.60;80.30;;;17.72;50.30;98944.84;5027246;27;123221;-89
2023/10/11 03:04:41;;;;;;;11.50;5.20;;;17.50;80.30;;;17.71;50.27;98945.22;5025218;27;123740;-89
2023/10/11 03:07:21;;;;;;;11.13;5.80;;;17.50;80.40;;;17.71;50.17;98939.66;5027352;28;119971;-88
2023/10/11 03:09:50;;;;;;;10.40;4.87;;;17.40;80.40;;;17.69;50.44;98942.78;5025349;27;119440;-88
2023/10/11 03:12:26;;;;;;;11.27;5.03;;;17.40;80.40;;;17.70;50.42;98938.81;5026457;27;123054;-89
2023/10/11 03:15:05;;;;;;;11.80;5.27;;;17.40;80.60;;;17.70;50.68;98949.19;5023217;28;123866;-90
2023/10/11 03:17:32;;;;;;;9.83;4.97;;;17.40;80.70;;;17.70;50.66;98949.19;5024775;27;119402;-88
2023/10/11 03:20:06;;;;;;;12.60;6.13;;;17.40;80.70;;;17.69;50.64;98941.97;5010968;28;118043;-88
2023/10/11 03:22:35;;;;;;;9.60;4.87;;;17.40;80.80;;;17.67;50.48;98940.34;5020775;27;124131;-88
2023/10/11 03:25:12;;;;;;;12.13;5.57;;;17.40;80.80;;;17.66;50.59;98937.91;5020522;28;123200;-88
2023/10/11 03:27:48;;;;;;;11.50;5.70;;;17.40;80.90;;;17.65;50.73;98942.69;5024031;27;119351;-89
2023/10/11 03:30:21;;;;;;;10.03;5.07;;;17.40;81.00;;;17.62;50.63;98943.41;5024312;27;119102;-88
2023/10/11 03:32:49;;;;;;;11.73;5.83;;;17.40;81.00;;;17.61;50.88;98933.38;5025737;27;124105;-88
2023/10/11 03:35:18;;;;;;;10.97;5.87;;;17.30;81.20;;;17.59;50.90;98938.50;5024539;27;123827;-88
2023/10/11 03:37:57;;;;;;;13.77;6.07;;;17.30;81.20;;;17.55;51.10;98936.81;5023044;28;120407;-89
2023/10/11 03:40:54;;;;;;;8.43;4.90;;;17.30;81.40;;;17.50;51.12;98929.47;5027488;27;120325;-89
2023/10/11 03:43:24;;;;;;;9.53;5.70;;;17.30;81.50;;;17.49;51.27;98933.47;5023641;28;124508;-89
2023/10/11 03:45:56;;;;;;;11.27;5.47;;;17.20;81.50;;;17.49;51.28;98933.47;5049791;27;123233;-89
2023/10/11 03:48:28;;;;;;;15.00;5.70;;;17.30;81.70;;;17.47;51.23;98930.19;5032700;27;119794;-88
2023/10/11 03:50:55;;;;;;;10.53;5.00;;;17.20;81.70;;;17.47;51.29;98930.19;5025363;27;118271;-89
2023/10/11 03:53:22;;;;;;;11.13;5.90;;;17.20;81.90;;;17.45;51.56;98924.94;4993107;28;123039;-89
2023/10/11 03:55:49;;;;;;;11.30;4.97;;;17.20;82.10;;;17.43;51.64;98930.06;5018542;27;123918;-89
2023/10/11 04:01:44;;;;;;;7.40;4.83;;;17.20;82.30;;;17.39;51.50;98928.38;5032066;27;119563;-89
2023/10/11 04:03:51;;;;;;;15.33;5.77;;;17.10;82.30;;;17.36;51.67;98931.88;5003362;27;124039;-89
2023/10/11 04:06:20;;;;;;;12.53;6.20;;;17.10;82.30;;;17.34;51.85;98931.41;5027836;27;123984;-87
2023/10/11 04:09:00;;;;;;;10.77;5.77;;;17.10;82.90;;;17.29;52.04;98923.28;5018655;27;119305;-89
2023/10/11 04:14:32;;;;;;;11.27;5.53;;;17.00;82.90;;;17.23;52.20;98926.31;5014981;27;124610;-89
2023/10/11 04:17:00;;;;;;;10.20;5.63;;;17.00;83.60;;;17.23;52.11;98923.53;5004809;28;122695;-89
2023/10/11 04:19:31;;;;;;;11.17;5.30;;;17.00;83.10;;;17.21;52.09;98928.63;5027393;27;96701;-89
2023/10/11 04:22:12;;;;;;;12.67;5.63;;;17.00;83.10;;;17.22;52.13;98924.69;5027290;27;120119;-89
2023/10/11 04:24:40;;;;;;;10.93;5.37;;;17.00;83.10;;;17.20;52.00;98929.81;5014350;28;124018;-88
2023/10/11 04:29:51;;;;;;;13.87;4.90;;;17.00;83.20;;;17.17;52.04;98927.75;5015550;27;121010;-89
2023/10/11 04:32:40;;;;;;;9.23;5.20;;;17.00;83.20;;;17.17;52.04;98930.53;5029179;27;120407;-88
2023/10/11 04:35:23;;;;;;;11.57;4.90;;;17.00;83.30;;;17.15;52.19;98929.25;5037322;27;123799;-90
2023/10/11 04:38:03;;;;;;;13.00;6.27;;;16.90;83.50;;;17.09;52.48;98931.47;5035107;27;124111;-89
2023/10/11 04:43:11;;;;;;;11.90;5.30;;;16.80;83.50;;;17.07;52.33;98935.78;5032300;27;119393;-87
2023/10/11 04:45:45;;;;;;;6.97;4.73;;;16.80;83.60;;;17.06;52.50;98937.78;5026906;27;124101;-88
2023/10/11 04:48:14;;;;;;;14.63;5.47;;;16.80;83.70;;;17.04;52.37;98934.50;5028036;27;123857;-89
2023/10/11 04:50:50;;;;;;;11.50;5.33;;;16.80;83.80;;;17.04;52.46;98939.28;5029311;27;119397;-88
2023/10/11 04:53:18;;;;;;;11.07;5.90;;;16.80;83.80;;;17.03;52.43;98937.66;5028591;27;119089;-90
2023/10/11 04:56:51;;;;;;;17.63;5.57;;;16.80;84.50;;;17.00;52.55;98950.31;5032568;27;124124;-90
2023/10/11 04:58:59;;;;;;;16.20;6.20;;;17.10;84.30;;;16.97;52.65;98939.88;5028763;27;123656;-89
2023/10/11 05:01:40;;;;;;;9.47;4.87;;;16.70;84.00;;;16.92;52.54;98945.69;5038170;27;119098;-88
2023/10/11 05:04:12;;;;;;;23.40;7.00;;;16.70;84.00;;;16.88;52.86;98945.59;5039230;27;118232;-88
2023/10/11 05:06:41;;;;;;;16.03;5.37;;;16.70;84.10;;;16.88;52.94;98947.56;5035831;27;124081;-88
2023/10/11 05:11:44;;;;;;;13.13;5.57;;;16.60;84.30;;;16.85;52.91;98946.28;5030965;27;119662;-88
2023/10/11 05:14:29;;;;;;;10.50;5.00;;;17.10;85.00;;;16.78;52.90;98944.06;5013199;27;119034;-88
2023/10/11 05:20:44;;;;;;;11.40;5.67;;;16.50;84.50;;;16.72;53.55;98939.88;5031053;27;124477;-88
2023/10/11 05:36:49;;;;;;;11.23;5.47;;;16.40;85.00;;;16.66;53.10;98946.06;5025330;27;119790;-90
2023/10/11 05:53:14;;;;;;;12.63;5.10;;;16.40;84.70;;;16.53;53.37;98950.81;5027906;27;124416;-88
2023/10/11 05:55:43;;;;;;;8.60;4.73;;;16.30;84.70;;;16.52;53.06;98951.97;5023139;27;119466;-89
2023/10/11 05:58:13;;;;;;;13.70;5.10;;;16.50;85.00;;;16.51;53.08;98961.50;5026746;27;118761;-88
2023/10/11 06:00:39;;;;;;;13.60;6.00;;;16.30;85.50;;;16.48;53.41;98960.22;5021781;28;124262;-89
2023/10/11 06:03:06;;;;;;;19.20;6.83;;;16.30;85.20;;;16.45;53.53;98960.09;5022882;27;124248;-88
2023/10/11 06:05:39;;;;;;;14.93;5.87;;;16.20;85.20;;;16.43;53.30;98962.44;5024085;27;119690;-88
2023/10/11 06:08:15;;;;;;;13.33;5.23;;;16.50;85.60;;;16.42;53.46;98958.03;5035570;27;119360;-89
2023/10/11 06:10:42;;;;;;;13.30;5.70;;;16.20;85.50;;;16.44;53.62;98956.50;5007580;27;124060;-89
2023/10/11 06:13:14;;;;;;;16.73;6.53;;;16.20;85.60;;;16.48;53.35;98959.41;5010890;27;124026;-89
2023/10/11 06:15:58;;;;;;;12.03;5.57;;;17.70;87.00;;;16.52;53.26;98954.75;5008956;27;119686;-87
2023/10/11 06:21:30;;;;;;;11.90;6.10;;;16.20;85.60;;;16.56;53.22;98959.28;5027034;27;124060;-86
2023/10/11 06:24:04;;;;;;;11.57;5.20;;;16.20;85.50;;;16.57;53.12;98951.72;5033954;27;123871;-88
2023/10/11 06:26:52;;;;;;;13.73;6.07;;;16.30;85.60;;;16.55;53.47;98949.31;5033771;27;120063;-88
2023/10/11 06:29:23;;;;;;;14.07;5.40;;;16.30;85.60;;;16.59;53.20;98954.19;5034929;27;119150;-87
2023/10/11 06:31:52;;;;;;;9.63;5.70;;;16.30;85.50;;;16.66;53.25;98952.44;5036231;27;124283;-88
2023/10/11 06:34:27;;;;;;;11.73;5.90;;;16.30;85.60;;;16.70;52.88;98947.78;5018451;27;122999;-89
2023/10/11 06:36:55;;;;;;;10.07;5.27;;;16.40;85.70;;;16.76;52.93;98951.97;5031760;27;119165;-89
2023/10/11 06:39:50;;;;;;;;;;;;;;;;;;;;;
2023/10/11 06:44:58;;;;;;;14.10;5.47;;;16.50;85.60;;;17.06;52.54;98945.31;5041003;27;123932;-88
2023/10/11 06:47:27;;;;;;;15.60;6.23;;;17.00;85.90;;;17.13;52.47;98954.72;5030095;27;119266;-89
2023/10/11 06:49:57;;;;;;;16.43;6.30;;;17.00;85.80;;;17.22;52.16;98952.63;5037805;27;118367;-89
2023/10/11 06:52:30;;;;;;;12.17;6.60;;;15.30;83.90;;;17.30;51.95;98956.44;5025789;27;123818;-86
2023/10/11 06:57:45;;;;;;;12.47;7.17;;;16.90;85.10;;;17.42;52.08;98958.38;5030190;27;120075;-87
2023/10/11 07:00:37;;;;;;;10.47;5.80;;;16.90;84.90;;;17.51;51.53;98961.81;5035225;27;118612;-86
2023/10/11 07:05:42;;;;;;;14.87;6.03;;;17.10;84.70;;;17.63;51.16;98955.41;5009890;28;126275;-87
2023/10/11 07:08:17;;;;;;;11.10;6.47;;;17.10;84.60;;;17.71;51.07;98967.59;5021644;27;120707;-88
2023/10/11 07:16:27;;;;;;;14.10;6.63;;;17.30;84.00;;;17.94;50.46;98960.25;5023577;27;123439;-88
2023/10/11 07:18:57;;;;;;;13.03;5.97;;;17.40;83.90;;;18.01;50.45;98956.88;5005412;28;119998;-87
2023/10/11 07:24:55;;;;;;;13.80;6.83;;;17.50;83.50;;;18.13;50.20;98964.34;5024941;27;124505;-89
2023/10/11 07:27:08;;;;;;;15.43;5.53;;;17.60;83.30;;;18.19;50.04;98968.50;5033288;27;123674;-90
2023/10/11 07:29:44;;;;;;;12.40;5.73;;;17.60;83.10;;;18.27;49.90;98970.34;5027866;27;120804;-89
2023/10/11 07:32:11;;;;;;;16.40;5.70;;;17.70;83.60;;;18.36;49.71;98970.97;5025066;27;119004;-89
2023/10/11 07:34:40;;;;;;;8.63;5.10;;;17.80;82.80;;;18.44;49.55;98971.97;5029744;27;124267;-87
2023/10/11 07:37:06;;;;;;;13.80;5.87;;;17.90;82.80;;;18.54;49.47;98982.63;5040239;27;122923;-88
2023/10/11 07:39:33;;;;;;;13.53;5.80;;;17.90;82.60;;;18.61;49.01;98965.19;5028508;27;120076;-87
2023/10/11 07:42:08;;;;;;;17.43;6.80;;;18.00;82.20;;;18.64;48.76;98970.06;5039526;27;119059;-88
2023/10/11 07:44:36;;;;;;;16.10;6.20;;;18.00;81.80;;;18.66;48.73;98973.31;5029954;27;125091;-89
2023/10/11 07:47:06;;;;;;;13.10;5.70;;;18.00;81.70;;;18.67;48.71;98974.94;5023501;27;123800;-89
2023/10/11 07:49:40;;;;;;;14.60;6.10;;;18.10;81.50;;;18.68;48.56;98979.38;5028408;27;119291;-86
2023/10/11 07:52:13;;;;;;;9.57;5.37;;;18.10;81.40;;;18.68;48.53;98965.38;5024444;27;119056;-88
2023/10/11 07:54:40;;;;;;;18.30;6.30;;;18.20;81.10;;;18.70;48.52;98975.03;5037205;27;124223;-89
2023/10/11 07:57:17;;;;;;;17.47;6.33;;;18.30;81.40;;;18.76;48.54;98964.41;4991821;28;123830;-89
2023/10/11 07:59:45;;;;;;;13.83;6.00;;;18.20;81.10;;;18.81;48.48;98966.13;5015464;27;119503;-85
2023/10/11 08:02:29;;;;;;;13.47;5.73;;;18.30;81.60;;;18.84;48.20;98954.19;5039241;27;119500;-88
2023/10/11 08:04:59;;;;;;;14.67;6.50;;;18.30;80.80;;;18.87;48.35;98957.06;5035686;27;124193;-87
2023/10/11 08:07:26;;;;;;;18.50;6.03;;;18.30;80.70;;;18.93;48.27;98960.38;5044093;27;123864;-86
2023/10/11 08:09:52;;;;;;;12.10;6.07;;;18.40;80.70;;;19.00;47.90;98962.56;5027589;27;119620;-88
2023/10/11 08:12:23;;;;;;;10.23;5.70;;;18.40;80.50;;;19.05;47.95;98956.66;5021589;28;118098;-88
2023/10/11 08:14:53;;;;;;;13.97;5.60;;;18.50;80.30;;;19.11;47.77;98960.81;5027804;27;123336;-86
2023/10/11 08:17:21;;;;;;;9.97;5.63;;;18.60;80.20;;;19.18;47.77;98952.53;5049050;27;123691;-88
2023/10/11 08:19:53;;;;;;;9.40;5.57;;;18.60;80.20;;;19.25;47.71;98963.13;5018035;27;120077;-87
2023/10/11 08:22:23;;;;;;;10.67;5.73;;;18.70;80.00;;;19.32;47.45;98952.88;5040541;27;118498;-87
2023/10/11 08:24:52;;;;;;;14.00;5.80;;;18.80;79.90;;;19.38;47.32;98956.19;5027386;27;124114;-86
2023/10/11 08:30:07;;;;;;;9.03;5.20;;;18.90;80.20;;;19.53;47.27;98957.28;5031187;27;119468;-85
2023/10/11 08:32:42;;;;;;;22.10;6.90;;;19.00;79.50;;;19.58;46.92;98949.41;5018120;27;120767;-87
2023/10/11 08:35:17;;;;;;;15.03;6.67;;;19.10;79.10;;;19.65;46.75;98951.56;5044097;27;124228;-87
2023/10/11 08:37:52;;;;;;;14.33;5.70;;;19.10;78.80;;;19.73;46.51;98956.16;5032181;27;123585;-87
2023/10/11 08:40:23;;;;;;;12.30;5.80;;;19.20;78.60;;;19.78;46.44;98950.25;5030300;27;119655;-89
2023/10/11 08:42:51;;;;;;;9.13;5.40;;;19.20;78.30;;;19.82;46.40;98956.72;5037211;27;119870;-85
2023/10/11 08:45:48;;;;;;;18.30;5.73;;;19.30;78.10;;;19.83;46.06;98958.38;5018009;27;124491;-88
2023/10/11 08:48:15;;;;;;;14.30;6.47;;;19.40;77.80;;;19.92;46.32;98955.31;5026812;27;123933;-87
2023/10/11 08:50:51;;;;;;;9.10;5.20;;;19.50;77.80;;;19.99;45.92;98949.06;5008542;28;119487;-88
2023/10/11 08:53:24;;;;;;;10.37;4.93;;;19.50;77.50;;;20.04;45.89;98945.91;5041636;27;120438;-86
2023/10/11 08:56:02;;;;;;;20.50;6.57;;;19.50;77.20;;;20.10;45.57;98950.06;5033114;27;123857;-86
2023/10/11 08:58:29;;;;;;;13.73;6.23;;;19.60;77.10;;;20.15;45.12;98951.72;5044081;27;123792;-86
2023/10/11 09:00:59;;;;;;;13.80;6.10;;;19.70;76.90;;;20.21;45.27;98939.84;5020415;28;120281;-85
2023/10/11 09:03:39;;;;;;;14.73;5.10;;;20.30;77.20;;;20.29;45.53;98944.38;5033319;27;118317;-84
2023/10/11 09:06:21;;;;;;;12.03;6.17;;;19.80;76.80;;;20.38;44.98;98940.50;5004881;27;122292;-87
2023/10/11 09:08:57;;;;;;;16.03;5.60;;;19.90;76.70;;;20.45;45.29;98937.84;5035403;27;122673;-86
2023/10/11 09:11:29;;;;;;;14.63;6.20;;;19.90;76.50;;;20.54;44.77;98941.22;5034233;27;120375;-86
2023/10/11 09:14:23;;;;;;;16.33;6.27;;;20.00;76.20;;;20.62;45.03;98934.53;5030234;27;118888;-87
2023/10/11 09:17:02;;;;;;;14.60;5.40;;;20.10;76.90;;;20.70;44.48;98932.66;5034178;27;124005;-85
2023/10/11 09:19:32;;;;;;;11.33;5.73;;;20.20;76.10;;;20.79;44.68;98936.00;5050958;27;123856;-86
2023/10/11 09:22:04;;;;;;;14.37;6.20;;;20.30;76.00;;;20.88;44.75;98932.94;5038125;27;119142;-86
2023/10/11 09:24:39;;;;;;;11.97;5.47;;;20.40;76.00;;;20.96;44.42;98920.63;5043354;27;119421;-86
2023/10/11 09:29:38;;;;;;;19.30;5.77;;;20.50;75.90;;;21.13;44.48;98930.47;5036407;27;124013;-84
2023/10/11 09:32:05;;;;;;;13.40;6.40;;;20.60;75.70;;;21.22;43.83;98922.56;5019706;27;119290;-86
2023/10/11 09:34:38;;;;;;;21.10;5.77;;;20.60;75.30;;;21.30;44.14;98932.72;5021396;27;119060;-85
2023/10/11 09:37:14;;;;;;;18.73;6.90;;;20.70;75.30;;;21.40;44.05;98939.69;5029763;27;124180;-83
2023/10/11 09:39:44;;;;;;;17.57;5.37;;;20.80;75.10;;;21.47;43.52;98931.38;5029428;27;124500;-84
2023/10/11 09:42:15;;;;;;;18.17;6.27;;;20.90;75.00;;;21.54;43.57;98936.25;5000224;27;119984;-85
2023/10/11 09:44:45;;;;;;;15.23;5.70;;;21.00;74.50;;;21.64;43.34;98934.78;4999658;27;120463;-86
2023/10/11 09:47:18;;;;;;;13.90;5.13;;;21.10;74.40;;;21.72;43.40;98930.84;5003702;27;124612;-87
2023/10/11 09:49:53;;;;;;;13.20;5.90;;;21.20;74.30;;;21.79;43.21;98928.13;5012950;27;124322;-86
2023/10/11 09:52:23;;;;;;;13.10;5.47;;;21.30;74.30;;;21.89;43.39;98930.22;5041828;27;119645;-86
2023/10/11 09:54:51;;;;;;;15.67;6.10;;;21.40;74.20;;;22.00;42.97;98936.81;5016586;27;118699;-84
2023/10/11 09:57:42;;;;;;;15.43;5.67;;;21.40;73.80;;;22.09;42.88;98938.50;5007276;28;124202;-86
2023/10/11 10:00:27;;;;;;;12.50;5.53;;;21.60;73.50;;;22.20;42.63;98925.38;5024918;27;123808;-83
2023/10/11 10:02:54;;;;;;;17.73;6.57;;;21.70;73.40;;;22.32;42.78;98929.88;5027530;27;119799;-84
2023/10/11 10:05:30;;;;;;;23.27;6.20;;;21.80;73.40;;;22.43;42.48;98920.34;5039602;27;119102;-85
2023/10/11 10:08:14;;;;;;;21.70;6.70;;;21.90;73.20;;;22.56;41.89;98918.03;5023312;27;124079;-80
2023/10/11 10:10:55;;;;;;;10.90;5.90;;;22.00;72.40;;;22.68;42.09;98914.13;5024642;27;122765;-84
2023/10/11 10:13:25;;;;;;;14.93;5.60;;;22.20;72.30;;;22.82;41.68;98916.22;5027522;27;119171;-84
2023/10/11 10:15:57;;;;;;;14.37;5.07;;;22.30;72.10;;;22.94;41.50;98911.06;5016211;27;118420;-83
2023/10/11 10:18:24;;;;;;;10.77;5.23;;;22.40;71.80;;;23.09;40.36;98905.53;5034133;27;123334;-84
2023/10/11 10:21:04;;;;;;;17.43;5.93;;;22.50;70.30;;;23.24;40.14;98910.06;4995676;28;123003;-84
2023/10/11 10:23:35;;;;;;;14.43;5.40;;;22.60;69.80;;;23.37;39.91;98905.69;5028333;27;119307;-84
2023/10/11 10:26:04;;;;;;;12.30;5.37;;;22.80;69.30;;;23.53;39.61;98904.53;5016594;27;119387;-84
2023/10/11 10:28:36;;;;;;;11.17;4.77;;;22.90;69.10;;;23.69;39.41;98909.81;5019483;28;122270;-84
2023/10/11 10:31:09;;;;;;;13.60;5.43;;;23.10;69.30;;;23.82;39.27;98908.28;5025086;27;123763;-85
2023/10/11 10:34:16;;;;;;;20.07;5.17;;;23.20;68.90;;;23.97;39.55;98909.13;5043489;27;119949;-84
2023/10/11 10:36:43;;;;;;;13.17;5.27;;;23.30;68.70;;;24.14;39.03;98910.38;5014941;27;120849;-85
2023/10/11 10:41:41;;;;;;;13.30;5.63;;;23.70;68.00;;;24.40;38.48;98897.91;5029321;27;123997;-85
2023/10/11 10:44:13;;;;;;;14.90;6.10;;;23.70;67.80;;;24.56;38.65;98901.16;5014545;27;119827;-86
2023/10/11 10:46:59;;;;;;;15.03;5.73;;;23.90;68.20;;;24.71;38.32;98901.13;4999080;28;118220;-85
2023/10/11 10:49:42;;;;;;;10.70;5.43;;;24.10;67.50;;;24.85;38.11;98895.44;5043000;27;123782;-85
2023/10/11 10:52:17;;;;;;;12.60;5.27;;;24.20;67.30;;;25.05;37.62;98888.13;5044834;27;123414;-86
2023/10/11 10:55:05;;;;;;;15.13;5.50;;;24.40;66.40;;;25.19;37.44;98883.69;5043596;27;119223;-86
2023/10/11 10:57:36;;;;;;;14.50;5.70;;;24.60;65.50;;;25.37;37.29;98887.25;5023846;27;119548;-86
2023/10/11 11:00:21;;;;;;;14.10;6.30;;;24.70;65.50;;;25.52;36.62;98876.69;5019897;27;124069;-86
2023/10/11 11:02:48;;;;;;;13.63;5.20;;;24.90;65.00;;;25.66;36.25;98870.16;5010253;28;122838;-87
2023/10/11 11:05:15;;;;;;;13.57;5.40;;;25.00;64.50;;;25.81;36.14;98871.66;5030698;27;118449;-87
2023/10/11 11:07:52;;;;;;;16.10;4.73;;;25.20;64.30;;;25.98;36.31;98865.13;5046004;27;119112;-85
2023/10/11 11:10:21;;;;;;;16.30;5.33;;;25.30;64.10;;;26.15;35.93;98866.22;5028841;27;124247;-86
2023/10/11 11:12:48;;;;;;;11.73;5.80;;;25.50;63.70;;;26.35;35.58;98849.44;5015912;27;123761;-87
2023/10/11 11:15:21;;;;;;;18.13;5.73;;;25.60;63.30;;;26.54;34.51;98855.81;5019729;27;119211;-86
2023/10/11 11:17:50;;;;;;;10.20;4.43;;;25.80;61.80;;;26.73;34.59;98845.91;5017990;28;118422;-86
2023/10/11 11:20:28;;;;;;;13.77;5.57;;;26.00;61.50;;;26.93;34.24;98846.09;5007197;28;124088;-85
2023/10/11 11:22:56;;;;;;;14.87;4.87;;;26.10;61.00;;;27.07;33.52;98849.56;5038923;27;123860;-84
2023/10/11 11:25:27;;;;;;;11.90;4.93;;;26.30;60.10;;;27.22;32.79;98849.44;5022339;27;120523;-87
2023/10/11 11:28:20;;;;;;;11.40;4.80;;;27.50;59.40;;;27.35;31.77;98835.47;5010551;27;119956;-87
2023/10/11 11:31:01;;;;;;;11.93;5.17;;;26.60;57.20;;;27.51;32.31;98838.50;5029185;27;124109;-89
2023/10/11 11:33:35;;;;;;;8.43;4.20;;;26.80;57.60;;;27.65;32.01;98835.50;5026328;27;124901;-87
2023/10/11 11:36:11;;;;;;;18.47;4.60;;;26.90;57.50;;;27.80;30.76;98829.59;5028919;27;118613;-89
2023/10/11 11:38:48;;;;;;;14.50;3.93;;;27.10;54.70;;;27.93;30.47;98822.13;5048674;27;118627;-87
2023/10/11 11:41:17;;;;;;;10.23;3.63;;;27.20;54.90;;;28.05;29.20;98827.22;5016676;27;124302;-82
2023/10/11 11:43:47;;;;;;;11.20;3.60;;;27.30;52.20;;;28.15;29.66;98812.00;5028126;27;123959;-85